Time;durP1;ratioP1;P1;durP2;ratioP2;P2;SDS_P1;SDS_P2;PMS_P1;PMS_P2;Temp;Humidity;BMP_temperature;BMP_pressure;BME280_temperature;BME280_humidity;BME280_pressure;Samples;Min_cycle;Max_cycle;Signal;HPM_P1;HPM_P2
2021/08/25 00:02:16;;;;;;;1.35;1.00;;;19.00;50.50;;;;;;4934463;29;20692;-58
2021/08/25 00:04:46;;;;;;;2.03;0.73;;;19.10;50.50;;;;;;4934139;29;20687;-64
2021/08/25 00:07:19;;;;;;;1.80;0.80;;;19.10;50.50;;;;;;4934196;29;20331;-61
2021/08/25 00:09:49;;;;;;;1.95;0.80;;;19.10;50.50;;;;;;4934600;29;20712;-64
2021/08/25 00:12:20;;;;;;;0.88;0.52;;;19.20;51.00;;;;;;4947739;29;20236;-63
2021/08/25 00:14:50;;;;;;;1.95;0.70;;;19.20;50.50;;;;;;4953162;28;20293;-59
2021/08/25 00:17:21;;;;;;;0.60;0.50;;;19.20;50.50;;;;;;4953343;28;20258;-60
2021/08/25 00:19:51;;;;;;;0.70;0.60;;;19.20;50.50;;;;;;4933473;28;20289;-64
2021/08/25 00:22:23;;;;;;;0.98;0.52;;;19.20;50.50;;;;;;4941334;29;20242;-58
2021/08/25 00:24:54;;;;;;;1.95;0.70;;;19.20;50.40;;;;;;4953244;28;20234;-64
2021/08/25 00:27:24;;;;;;;0.90;0.60;;;19.30;50.40;;;;;;4952954;28;20254;-63
2021/08/25 00:29:54;;;;;;;0.80;0.47;;;19.30;50.40;;;;;;4953053;28;20238;-64
2021/08/25 00:32:25;;;;;;;1.80;0.60;;;19.30;50.30;;;;;;4953086;28;20234;-61
2021/08/25 00:34:55;;;;;;;0.93;0.63;;;19.40;50.40;;;;;;4953117;28;20274;-58
2021/08/25 00:37:28;;;;;;;0.75;0.60;;;19.40;50.40;;;;;;4952547;28;20250;-63
2021/08/25 00:39:58;;;;;;;0.70;0.50;;;19.40;50.40;;;;;;4945637;28;20259;-58
2021/08/25 00:42:28;;;;;;;0.77;0.43;;;19.40;50.30;;;;;;4933825;29;20244;-54
2021/08/25 00:45:00;;;;;;;0.77;0.50;;;19.50;50.70;;;;;;4934247;29;20282;-64
2021/08/25 00:47:30;;;;;;;1.38;0.47;;;19.50;50.80;;;;;;4932650;29;20318;-61
2021/08/25 00:50:10;;;;;;;0.85;0.50;;;19.60;50.80;;;;;;4932905;29;20266;-64
2021/08/25 00:52:42;;;;;;;0.60;0.40;;;19.60;50.80;;;;;;4933858;29;20199;-55
2021/08/25 00:55:13;;;;;;;0.70;0.40;;;19.60;50.70;;;;;;4933147;29;20286;-52
2021/08/25 00:57:44;;;;;;;1.08;0.50;;;19.60;50.70;;;;;;4933748;29;20579;-52
2021/08/25 01:00:15;;;;;;;0.60;0.40;;;19.60;50.60;;;;;;4933023;29;20659;-54
2021/08/25 01:02:50;;;;;;;0.30;0.30;;;19.70;50.70;;;;;;4932573;29;20239;-64
2021/08/25 01:05:20;;;;;;;0.40;0.40;;;19.70;50.60;;;;;;4933609;29;20198;-64
2021/08/25 01:07:53;;;;;;;1.45;0.50;;;19.70;50.50;;;;;;4933126;29;20674;-63
2021/08/25 01:10:30;;;;;;;1.13;0.40;;;19.80;50.40;;;;;;4933102;29;20235;-54
2021/08/25 01:13:00;;;;;;;0.55;0.40;;;19.80;50.30;;;;;;4933042;29;20234;-63
2021/08/25 01:15:31;;;;;;;0.40;0.40;;;19.80;50.30;;;;;;4932884;29;20235;-59
2021/08/25 01:18:02;;;;;;;0.65;0.32;;;19.90;50.80;;;;;;4933035;29;20302;-63
2021/08/25 01:20:32;;;;;;;0.20;0.20;;;19.90;50.20;;;;;;4932987;29;20270;-63
2021/08/25 01:23:04;;;;;;;0.40;0.40;;;19.90;50.20;;;;;;4932721;29;20290;-62
2021/08/25 01:25:35;;;;;;;0.45;0.20;;;19.90;50.20;;;;;;4933224;29;20238;-64
2021/08/25 01:28:06;;;;;;;1.00;0.50;;;19.90;50.20;;;;;;4932567;29;20315;-63
2021/08/25 01:30:39;;;;;;;0.38;0.30;;;20.00;50.20;;;;;;4933146;29;20211;-64
2021/08/25 01:33:12;;;;;;;0.35;0.30;;;20.00;50.10;;;;;;4943518;29;20655;-64
2021/08/25 01:35:42;;;;;;;0.40;0.30;;;20.00;50.00;;;;;;4952527;28;20230;-62
2021/08/25 01:38:15;;;;;;;0.30;0.30;;;20.00;50.00;;;;;;4951859;28;20305;-61
2021/08/25 01:40:45;;;;;;;0.85;0.30;;;20.10;50.00;;;;;;4952151;28;20297;-64
2021/08/25 01:43:15;;;;;;;0.30;0.30;;;20.10;50.00;;;;;;4951878;28;20294;-55
2021/08/25 01:45:48;;;;;;;0.30;0.30;;;20.10;50.00;;;;;;4952712;28;20230;-64
2021/08/25 01:48:18;;;;;;;0.30;0.30;;;20.10;49.90;;;;;;4950026;28;20247;-64
2021/08/25 01:50:49;;;;;;;0.28;0.28;;;20.20;49.90;;;;;;4933117;29;20287;-63
2021/08/25 01:53:19;;;;;;;0.30;0.30;;;20.20;49.70;;;;;;4933115;29;20342;-53
2021/08/25 01:55:50;;;;;;;0.90;0.22;;;20.20;49.60;;;;;;4931796;29;20239;-63
2021/08/25 01:58:20;;;;;;;0.20;0.20;;;20.30;50.30;;;;;;4933763;29;20732;-62
2021/08/25 02:00:53;;;;;;;0.30;0.30;;;20.30;50.40;;;;;;4937126;29;20235;-63
2021/08/25 02:03:23;;;;;;;1.27;0.30;;;20.40;50.50;;;;;;4949887;29;20241;-64
2021/08/25 02:05:53;;;;;;;0.30;0.30;;;20.50;50.40;;;;;;4956227;28;20262;-64
2021/08/25 02:08:24;;;;;;;0.20;0.20;;;20.50;50.30;;;;;;4955585;28;20265;-55
2021/08/25 02:10:54;;;;;;;0.35;0.30;;;20.50;50.10;;;;;;4956345;28;20242;-63
2021/08/25 02:13:25;;;;;;;0.55;0.30;;;20.50;50.00;;;;;;4954842;28;20270;-63
2021/08/25 02:15:57;;;;;;;0.25;0.25;;;20.60;50.10;;;;;;4956521;28;20393;-64
2021/08/25 02:18:27;;;;;;;0.20;0.20;;;20.60;50.00;;;;;;4955364;28;20218;-64
2021/08/25 02:20:58;;;;;;;0.40;0.30;;;20.60;50.00;;;;;;4955807;28;20277;-63
2021/08/25 02:23:28;;;;;;;0.22;0.22;;;20.70;50.70;;;;;;4955072;28;20286;-56
2021/08/25 02:25:59;;;;;;;0.30;0.30;;;20.70;50.00;;;;;;4954139;28;20290;-64
2021/08/25 02:28:29;;;;;;;0.20;0.20;;;20.70;50.00;;;;;;4954528;28;20262;-65
2021/08/25 02:31:01;;;;;;;0.20;0.20;;;20.70;49.90;;;;;;4954657;28;20330;-60
2021/08/25 02:33:32;;;;;;;0.20;0.20;;;20.80;49.80;;;;;;4953787;28;20270;-57
2021/08/25 02:36:02;;;;;;;0.55;0.30;;;20.80;49.60;;;;;;4954722;28;20241;-65
2021/08/25 02:38:33;;;;;;;0.25;0.25;;;20.80;49.50;;;;;;4954523;28;20325;-63
2021/08/25 02:41:03;;;;;;;0.20;0.20;;;20.90;49.50;;;;;;4955222;28;20290;-66
2021/08/25 02:43:34;;;;;;;0.75;0.20;;;20.90;49.50;;;;;;4955430;28;20663;-65
2021/08/25 02:46:06;;;;;;;0.50;0.32;;;20.90;49.50;;;;;;4954699;28;20257;-65
2021/08/25 02:48:36;;;;;;;0.50;0.20;;;21.00;49.30;;;;;;4954885;28;20223;-65
2021/08/25 02:51:07;;;;;;;0.22;0.22;;;20.90;49.30;;;;;;4954712;28;20238;-66
2021/08/25 02:53:37;;;;;;;0.28;0.28;;;21.00;49.20;;;;;;4955180;28;20241;-64
2021/08/25 02:56:08;;;;;;;0.20;0.20;;;21.10;49.10;;;;;;4954529;28;20281;-62
2021/08/25 02:58:38;;;;;;;0.15;0.10;;;21.10;49.00;;;;;;4951894;28;20707;-65
2021/08/25 03:01:11;;;;;;;0.32;0.20;;;21.10;48.90;;;;;;4954304;28;20692;-62
2021/08/25 03:03:41;;;;;;;0.20;0.20;;;21.10;48.90;;;;;;4954061;28;20628;-62
2021/08/25 03:06:11;;;;;;;0.20;0.20;;;21.10;48.80;;;;;;4955048;28;20709;-65
2021/08/25 03:08:42;;;;;;;0.20;0.20;;;21.20;48.80;;;;;;4954431;28;20263;-66
2021/08/25 03:11:13;;;;;;;1.33;0.20;;;21.20;48.90;;;;;;4954188;28;20234;-56
2021/08/25 03:13:43;;;;;;;0.10;0.10;;;21.20;48.90;;;;;;4941422;28;20290;-65
2021/08/25 03:16:15;;;;;;;0.17;0.17;;;21.30;48.80;;;;;;4952844;29;20301;-65
2021/08/25 03:18:46;;;;;;;0.40;0.30;;;21.30;48.80;;;;;;4954941;28;20251;-65
2021/08/25 03:21:16;;;;;;;0.20;0.20;;;21.40;48.80;;;;;;4936009;29;20235;-65
2021/08/25 03:23:47;;;;;;;0.20;0.20;;;21.40;48.50;;;;;;4935202;29;20347;-65
2021/08/25 03:26:17;;;;;;;0.75;0.25;;;21.40;48.30;;;;;;4934511;29;20832;-66
2021/08/25 03:28:47;;;;;;;0.20;0.20;;;21.40;48.20;;;;;;4950353;29;20242;-61
2021/08/25 03:31:20;;;;;;;0.40;0.20;;;21.40;48.10;;;;;;4954565;28;20234;-62
2021/08/25 03:33:50;;;;;;;0.38;0.20;;;21.50;48.10;;;;;;4952431;28;20230;-59
2021/08/25 03:36:21;;;;;;;0.20;0.20;;;21.50;48.20;;;;;;4949057;28;20227;-66
2021/08/25 03:38:51;;;;;;;0.28;0.20;;;21.50;48.40;;;;;;4936983;29;20220;-52
2021/08/25 03:41:21;;;;;;;0.80;0.20;;;21.60;48.50;;;;;;4953553;28;20301;-56
2021/08/25 03:43:52;;;;;;;0.20;0.20;;;21.60;48.50;;;;;;4954279;28;20203;-52
2021/08/25 03:46:24;;;;;;;0.20;0.20;;;21.60;48.50;;;;;;4945267;28;20231;-62
2021/08/25 03:48:55;;;;;;;0.25;0.22;;;21.60;48.40;;;;;;4938526;29;20250;-61
2021/08/25 03:51:25;;;;;;;0.10;0.10;;;21.70;48.50;;;;;;4940417;29;20226;-65
2021/08/25 03:53:55;;;;;;;0.10;0.10;;;21.70;48.50;;;;;;4953317;28;20285;-63
2021/08/25 03:56:26;;;;;;;0.93;0.30;;;21.80;48.40;;;;;;4954491;28;20227;-53
2021/08/25 03:58:56;;;;;;;0.95;0.20;;;21.80;48.90;;;;;;4953582;28;20246;-44
2021/08/25 04:01:29;;;;;;;0.30;0.20;;;21.80;46.60;;;;;;4953523;28;20198;-53
2021/08/25 04:04:00;;;;;;;0.63;0.35;;;21.80;45.10;;;;;;4953307;28;20199;-57
2021/08/25 04:06:31;;;;;;;0.70;0.30;;;21.80;44.10;;;;;;4954420;28;20194;-51
2021/08/25 04:09:01;;;;;;;0.35;0.30;;;21.80;44.00;;;;;;4952900;28;20254;-53
2021/08/25 04:11:32;;;;;;;2.53;0.20;;;21.80;44.20;;;;;;4937695;29;20223;-51
2021/08/25 04:14:03;;;;;;;1.45;0.30;;;21.80;44.20;;;;;;4935196;29;20664;-59
2021/08/25 04:16:35;;;;;;;0.80;0.30;;;21.80;44.40;;;;;;4934886;29;20691;-66
2021/08/25 04:19:05;;;;;;;0.40;0.40;;;21.80;44.80;;;;;;4935061;29;20664;-65
2021/08/25 04:21:38;;;;;;;0.63;0.20;;;21.80;45.10;;;;;;4933442;29;20291;-60
2021/08/25 04:24:09;;;;;;;0.28;0.25;;;21.80;45.30;;;;;;4947720;29;20290;-60
2021/08/25 04:26:39;;;;;;;0.88;0.30;;;21.80;45.40;;;;;;4953948;28;20643;-51
2021/08/25 04:29:10;;;;;;;1.35;0.40;;;21.80;45.50;;;;;;4939012;28;20307;-65
2021/08/25 04:31:42;;;;;;;1.65;0.35;;;21.90;45.70;;;;;;4934586;29;20255;-63
2021/08/25 04:34:13;;;;;;;1.95;0.17;;;21.90;45.70;;;;;;4934577;29;20238;-52
2021/08/25 04:36:43;;;;;;;1.13;0.40;;;21.90;45.80;;;;;;4934156;29;20301;-65
2021/08/25 04:39:13;;;;;;;1.15;0.30;;;22.00;46.00;;;;;;4933909;29;20255;-60
2021/08/25 04:41:44;;;;;;;2.60;0.30;;;22.00;46.10;;;;;;4934493;29;20655;-59
2021/08/25 04:44:14;;;;;;;0.38;0.22;;;22.00;46.10;;;;;;4934606;29;20203;-58
2021/08/25 04:46:47;;;;;;;0.20;0.10;;;22.00;46.20;;;;;;4934705;29;20290;-66
2021/08/25 04:49:18;;;;;;;0.40;0.20;;;22.00;46.30;;;;;;4934820;29;20286;-67
2021/08/25 04:51:48;;;;;;;0.50;0.20;;;22.10;46.40;;;;;;4947676;28;20635;-65
2021/08/25 04:54:19;;;;;;;0.90;0.22;;;22.10;46.40;;;;;;4972662;28;20248;-59
2021/08/25 04:56:50;;;;;;;0.95;0.28;;;22.10;46.40;;;;;;4965634;28;20285;-57
2021/08/25 04:59:20;;;;;;;0.20;0.20;;;22.10;46.40;;;;;;4933415;29;20200;-62
2021/08/25 05:01:52;;;;;;;0.20;0.20;;;22.10;46.70;;;;;;4933689;29;20265;-50
2021/08/25 05:04:23;;;;;;;0.30;0.30;;;22.10;46.30;;;;;;4933671;29;20656;-61
2021/08/25 05:06:53;;;;;;;0.10;0.10;;;22.20;46.40;;;;;;4933320;29;20206;-54
2021/08/25 05:09:24;;;;;;;0.22;0.20;;;22.20;46.40;;;;;;4937676;29;20226;-67
2021/08/25 05:11:54;;;;;;;0.20;0.20;;;22.20;46.40;;;;;;4950267;28;20721;-54
2021/08/25 05:14:24;;;;;;;1.38;0.30;;;22.20;46.50;;;;;;4952843;28;20622;-56
2021/08/25 05:16:57;;;;;;;0.65;0.20;;;22.20;46.30;;;;;;4952617;28;20642;-63
2021/08/25 05:19:27;;;;;;;0.50;0.40;;;22.20;46.20;;;;;;4951623;28;20234;-50
2021/08/25 05:21:58;;;;;;;0.40;0.13;;;22.20;46.30;;;;;;4934203;28;20624;-57
2021/08/25 05:24:28;;;;;;;0.20;0.20;;;22.20;46.30;;;;;;4933364;29;20235;-50
2021/08/25 05:26:58;;;;;;;0.10;0.10;;;22.20;46.20;;;;;;4933367;29;20237;-50
2021/08/25 05:29:29;;;;;;;0.22;0.22;;;22.20;45.90;;;;;;4933632;29;20195;-58
2021/08/25 05:32:01;;;;;;;0.20;0.20;;;22.20;45.80;;;;;;4933886;29;20199;-53
2021/08/25 05:34:32;;;;;;;0.20;0.20;;;22.20;46.00;;;;;;4932191;29;20239;-66
2021/08/25 05:37:02;;;;;;;0.32;0.20;;;22.20;46.30;;;;;;4933363;29;20278;-66
2021/08/25 05:39:32;;;;;;;0.20;0.20;;;22.20;46.60;;;;;;4933201;29;20238;-61
2021/08/25 05:42:03;;;;;;;0.20;0.20;;;22.20;46.90;;;;;;4933338;29;20278;-65
2021/08/25 05:44:34;;;;;;;0.40;0.20;;;22.20;47.10;;;;;;4933565;29;20703;-64
2021/08/25 05:47:07;;;;;;;0.30;0.30;;;22.20;47.20;;;;;;4933723;29;20268;-50
2021/08/25 05:49:38;;;;;;;1.27;0.30;;;22.20;47.20;;;;;;4933881;29;20238;-53
2021/08/25 05:52:09;;;;;;;0.50;0.30;;;22.20;47.20;;;;;;4933862;29;20241;-59
2021/08/25 05:54:39;;;;;;;0.22;0.20;;;22.20;47.20;;;;;;4933963;29;20690;-43
2021/08/25 05:57:09;;;;;;;0.30;0.30;;;22.20;47.30;;;;;;4952145;28;20706;-57
2021/08/25 05:59:40;;;;;;;0.20;0.20;;;22.20;47.30;;;;;;4947821;28;20631;-60
2021/08/25 06:02:12;;;;;;;0.30;0.30;;;22.20;47.40;;;;;;4932622;29;20262;-64
2021/08/25 06:04:43;;;;;;;0.47;0.28;;;22.20;47.40;;;;;;4933835;29;20660;-65
2021/08/25 06:07:13;;;;;;;0.30;0.20;;;22.20;47.40;;;;;;4933267;29;20247;-44
2021/08/25 06:09:43;;;;;;;0.50;0.47;;;22.20;47.50;;;;;;4934730;28;20235;-56
2021/08/25 06:12:14;;;;;;;0.98;0.30;;;22.20;45.50;;;;;;4933124;29;20308;-52
2021/08/25 06:14:44;;;;;;;0.20;0.20;;;22.10;44.90;;;;;;4933038;29;20239;-50
2021/08/25 06:17:17;;;;;;;1.35;0.30;;;22.10;45.10;;;;;;4933142;29;20224;-50
2021/08/25 06:19:47;;;;;;;0.30;0.25;;;22.00;45.30;;;;;;4933068;29;20630;-51
2021/08/25 06:22:17;;;;;;;0.73;0.40;;;22.00;45.40;;;;;;4933454;29;20242;-65
2021/08/25 06:24:48;;;;;;;0.90;0.30;;;21.90;45.50;;;;;;4933255;29;20274;-63
2021/08/25 06:27:18;;;;;;;0.70;0.30;;;21.90;45.50;;;;;;4933505;29;20255;-58
2021/08/25 06:29:49;;;;;;;0.63;0.30;;;21.90;45.50;;;;;;4933675;29;20258;-64
2021/08/25 06:32:21;;;;;;;0.65;0.30;;;21.90;45.70;;;;;;4933307;29;20660;-64
2021/08/25 06:34:51;;;;;;;0.35;0.35;;;21.80;45.70;;;;;;4933924;29;20743;-63
2021/08/25 06:37:22;;;;;;;1.10;0.30;;;21.80;45.80;;;;;;4933689;29;20266;-65
2021/08/25 06:39:52;;;;;;;1.52;0.38;;;21.80;45.90;;;;;;4933657;29;20239;-65
2021/08/25 06:42:23;;;;;;;0.20;0.20;;;21.80;46.00;;;;;;4933579;29;20242;-65
2021/08/25 06:44:53;;;;;;;0.40;0.20;;;21.70;46.10;;;;;;4933801;29;20227;-62
2021/08/25 06:47:25;;;;;;;0.30;0.13;;;21.70;46.10;;;;;;4936825;29;20314;-66
2021/08/25 06:49:56;;;;;;;0.22;0.17;;;21.70;46.20;;;;;;4936785;29;20306;-66
2021/08/25 06:52:26;;;;;;;0.30;0.30;;;21.70;46.20;;;;;;4936825;29;20250;-65
2021/08/25 06:54:56;;;;;;;0.63;0.20;;;21.60;46.10;;;;;;4935782;29;20704;-65
2021/08/25 06:57:27;;;;;;;0.68;0.57;;;21.60;46.10;;;;;;4935733;29;20728;-66
2021/08/25 06:59:57;;;;;;;0.40;0.40;;;21.60;46.20;;;;;;4935943;29;20671;-66
2021/08/25 07:02:30;;;;;;;0.20;0.20;;;21.50;46.30;;;;;;4936241;29;20243;-66
2021/08/25 07:05:00;;;;;;;0.40;0.40;;;21.50;46.40;;;;;;4936190;29;20286;-57
2021/08/25 07:07:30;;;;;;;0.50;0.50;;;21.50;46.40;;;;;;4935963;29;20306;-58
2021/08/25 07:10:01;;;;;;;0.70;0.40;;;21.40;46.50;;;;;;4935859;29;20239;-53
2021/08/25 07:12:31;;;;;;;1.15;0.40;;;21.40;46.50;;;;;;4936319;29;20235;-65
2021/08/25 07:15:02;;;;;;;0.40;0.40;;;21.40;46.60;;;;;;4936535;29;20305;-56
2021/08/25 07:17:34;;;;;;;0.52;0.30;;;21.40;46.70;;;;;;4936182;29;20224;-62
2021/08/25 07:20:04;;;;;;;1.52;0.52;;;21.40;46.80;;;;;;4935984;29;20282;-67
2021/08/25 07:22:35;;;;;;;0.40;0.40;;;21.30;46.80;;;;;;4935991;29;20239;-66
2021/08/25 07:25:06;;;;;;;0.57;0.50;;;21.30;46.80;;;;;;4935919;29;20249;-67
2021/08/25 07:27:36;;;;;;;0.73;0.50;;;21.30;46.90;;;;;;4938102;29;20302;-59
2021/08/25 07:30:07;;;;;;;2.67;0.65;;;21.20;46.90;;;;;;4955343;28;20199;-62
2021/08/25 07:32:39;;;;;;;1.50;0.63;;;21.20;46.90;;;;;;4955165;28;20234;-67
2021/08/25 07:35:11;;;;;;;1.85;0.60;;;21.20;46.90;;;;;;4955186;28;20679;-53
2021/08/25 07:37:41;;;;;;;0.60;0.60;;;21.20;47.00;;;;;;4955400;28;20733;-65
2021/08/25 07:40:12;;;;;;;1.15;0.70;;;21.10;46.90;;;;;;4954506;28;20674;-53
2021/08/25 07:42:44;;;;;;;0.90;0.60;;;21.10;47.10;;;;;;4954860;28;20242;-61
2021/08/25 07:45:15;;;;;;;1.25;0.80;;;21.10;47.10;;;;;;4955109;28;20205;-58
2021/08/25 07:47:47;;;;;;;1.05;0.70;;;21.10;47.20;;;;;;4954815;28;20250;-61
2021/08/25 07:50:18;;;;;;;1.00;0.93;;;21.00;47.20;;;;;;4955060;28;20206;-63
2021/08/25 07:52:48;;;;;;;1.75;1.20;;;21.00;47.30;;;;;;4955445;28;20230;-60
2021/08/25 07:55:19;;;;;;;1.63;1.20;;;21.00;47.50;;;;;;4954579;28;20238;-52
2021/08/25 07:57:49;;;;;;;3.33;2.92;;;21.00;47.60;;;;;;4954492;28;20270;-56
2021/08/25 08:00:20;;;;;;;4.03;2.97;;;21.00;47.90;;;;;;4954717;28;20238;-60
2021/08/25 08:02:52;;;;;;;3.78;2.30;;;21.00;48.20;;;;;;4951667;28;20237;-55
2021/08/25 08:05:23;;;;;;;2.88;2.08;;;21.00;48.20;;;;;;4954013;28;20238;-62
2021/08/25 08:07:53;;;;;;;2.60;1.80;;;20.90;48.20;;;;;;4954379;28;20262;-62
2021/08/25 08:10:23;;;;;;;2.42;1.85;;;20.90;48.20;;;;;;4949456;28;20293;-59
2021/08/25 08:12:54;;;;;;;2.75;1.73;;;20.90;48.20;;;;;;4954029;28;20311;-61
2021/08/25 08:15:26;;;;;;;2.35;1.70;;;20.90;48.20;;;;;;4954223;28;20239;-53
2021/08/25 08:17:59;;;;;;;2.80;1.98;;;20.80;48.20;;;;;;4954260;28;20230;-47
2021/08/25 08:20:30;;;;;;;4.38;2.80;;;20.80;48.30;;;;;;4953586;28;20226;-65
2021/08/25 08:23:00;;;;;;;4.45;2.67;;;20.80;48.50;;;;;;4953237;28;20378;-50
2021/08/25 08:25:31;;;;;;;2.97;1.80;;;20.80;48.60;;;;;;4952849;28;20637;-57
2021/08/25 08:28:01;;;;;;;2.72;1.80;;;20.80;48.60;;;;;;4947923;28;20726;-60
2021/08/25 08:30:32;;;;;;;2.83;1.92;;;20.80;48.50;;;;;;4934242;29;20211;-67
2021/08/25 08:33:05;;;;;;;2.75;1.98;;;20.70;48.50;;;;;;4934886;29;20227;-55
2021/08/25 08:35:36;;;;;;;2.28;1.92;;;20.70;48.50;;;;;;4934275;29;20285;-55
2021/08/25 08:38:07;;;;;;;2.40;1.80;;;20.70;48.50;;;;;;4934500;29;20615;-53
2021/08/25 08:40:37;;;;;;;2.20;1.70;;;20.70;48.50;;;;;;4933915;29;20238;-55
2021/08/25 08:43:08;;;;;;;2.53;1.60;;;20.70;48.50;;;;;;4934405;29;20282;-62
2021/08/25 08:45:41;;;;;;;2.05;1.60;;;20.60;48.50;;;;;;4934861;29;20230;-67
2021/08/25 08:48:13;;;;;;;3.15;1.70;;;20.60;48.50;;;;;;4934620;29;20251;-59
2021/08/25 08:50:45;;;;;;;2.03;1.50;;;20.60;48.60;;;;;;4934815;29;20239;-67
2021/08/25 08:53:17;;;;;;;2.10;1.55;;;20.60;48.60;;;;;;4933107;29;20656;-58
2021/08/25 08:55:47;;;;;;;1.30;1.20;;;20.50;48.50;;;;;;4934116;29;20207;-52
2021/08/25 08:58:17;;;;;;;2.05;1.38;;;20.50;48.60;;;;;;4934278;29;20298;-67
2021/08/25 09:00:48;;;;;;;1.52;1.30;;;20.50;48.60;;;;;;4934553;29;20339;-62
2021/08/25 09:03:26;;;;;;;4.45;1.40;;;20.50;48.60;;;;;;4934456;29;20286;-60
2021/08/25 09:05:59;;;;;;;3.08;1.73;;;20.50;48.60;;;;;;4933658;29;20712;-67
2021/08/25 09:08:29;;;;;;;2.05;1.08;;;20.40;48.60;;;;;;4933186;29;20275;-50
2021/08/25 09:11:04;;;;;;;2.03;1.30;;;20.40;48.60;;;;;;4933929;29;20684;-59
2021/08/25 09:13:47;;;;;;;1.45;1.15;;;20.40;48.60;;;;;;4933511;29;20241;-60
2021/08/25 09:16:28;;;;;;;1.85;1.25;;;20.30;48.60;;;;;;4934078;29;20230;-67
2021/08/25 09:19:07;;;;;;;2.40;1.17;;;20.30;48.60;;;;;;4933590;29;20220;-60
2021/08/25 09:21:38;;;;;;;2.03;1.00;;;20.30;48.60;;;;;;4933533;29;20318;-57
2021/08/25 09:24:09;;;;;;;2.42;1.40;;;20.30;48.60;;;;;;4933201;29;20235;-67
2021/08/25 09:26:40;;;;;;;1.20;1.10;;;20.20;48.60;;;;;;4932935;29;20246;-57
2021/08/25 09:29:19;;;;;;;2.65;1.40;;;20.20;48.60;;;;;;4933400;29;20298;-67
2021/08/25 09:31:50;;;;;;;2.45;1.00;;;20.20;48.60;;;;;;4932971;29;20234;-58
2021/08/25 09:34:31;;;;;;;2.60;1.02;;;20.20;48.60;;;;;;4933955;29;20227;-54
2021/08/25 09:37:11;;;;;;;1.95;1.05;;;20.20;48.60;;;;;;4945470;28;20634;-67
2021/08/25 09:39:45;;;;;;;2.38;1.00;;;20.10;48.60;;;;;;4952450;28;20237;-68
2021/08/25 09:42:16;;;;;;;2.35;1.20;;;20.10;48.60;;;;;;4943444;28;20342;-67
2021/08/25 09:44:46;;;;;;;1.08;0.98;;;20.10;48.70;;;;;;4933645;29;20199;-68
2021/08/25 09:47:17;;;;;;;1.42;1.00;;;20.10;48.70;;;;;;4933219;29;20747;-65
2021/08/25 09:49:49;;;;;;;1.48;1.10;;;20.00;48.70;;;;;;4934134;29;20715;-67
2021/08/25 09:52:36;;;;;;;1.15;1.05;;;20.00;48.70;;;;;;4934228;29;20234;-66
2021/08/25 09:55:06;;;;;;;1.92;1.02;;;20.00;48.70;;;;;;4948625;29;20199;-63
2021/08/25 09:57:40;;;;;;;1.33;0.80;;;20.00;48.70;;;;;;4952738;28;20691;-66
2021/08/25 10:00:11;;;;;;;1.02;0.70;;;19.90;48.80;;;;;;4952340;28;20249;-60
2021/08/25 10:02:41;;;;;;;1.35;0.88;;;19.90;48.80;;;;;;4952819;28;20706;-67
2021/08/25 10:05:14;;;;;;;0.90;0.80;;;19.90;48.80;;;;;;4952402;28;20230;-64
2021/08/25 10:07:44;;;;;;;0.85;0.65;;;19.90;48.80;;;;;;4952996;28;20250;-68
2021/08/25 10:10:15;;;;;;;1.40;0.82;;;19.90;48.80;;;;;;4948931;28;20635;-63
2021/08/25 10:12:45;;;;;;;1.70;1.00;;;19.90;48.80;;;;;;4952925;28;20621;-65
2021/08/25 10:15:44;;;;;;;1.10;0.70;;;19.80;48.70;;;;;;4952552;28;20659;-51
2021/08/25 10:18:31;;;;;;;0.95;0.75;;;19.80;48.80;;;;;;4952753;28;20306;-66
2021/08/25 10:21:03;;;;;;;2.47;1.05;;;19.80;48.80;;;;;;4955917;28;20199;-62
2021/08/25 10:24:06;;;;;;;0.90;0.70;;;19.80;49.40;;;;;;4954799;28;20234;-67
2021/08/25 10:27:02;;;;;;;1.63;0.90;;;19.70;48.90;;;;;;4954700;29;20596;-67
2021/08/25 10:29:32;;;;;;;2.20;1.00;;;19.70;48.80;;;;;;4938629;28;20279;-55
2021/08/25 10:32:16;;;;;;;1.25;0.80;;;19.70;48.90;;;;;;4937250;29;20231;-56
2021/08/25 10:34:47;;;;;;;1.55;1.00;;;19.70;48.90;;;;;;4935940;29;20230;-57
2021/08/25 10:37:36;;;;;;;2.55;1.08;;;19.60;48.90;;;;;;4937016;29;20255;-61
2021/08/25 10:40:07;;;;;;;1.70;1.10;;;19.60;49.00;;;;;;4936274;29;20243;-68
2021/08/25 10:42:54;;;;;;;1.95;1.20;;;19.60;49.00;;;;;;4936896;29;20314;-67
2021/08/25 10:45:58;;;;;;;3.25;1.30;;;19.50;48.90;;;;;;4935665;29;20290;-62
2021/08/25 10:48:55;;;;;;;1.83;1.05;;;19.50;49.00;;;;;;4936257;29;20286;-65
2021/08/25 10:51:36;;;;;;;2.55;0.90;;;19.50;49.00;;;;;;4931797;23;20278;-54
2021/08/25 10:54:13;;;;;;;2.30;1.17;;;19.50;49.00;;;;;;5013989;28;20723;-53
2021/08/25 10:56:44;;;;;;;1.95;1.20;;;19.50;49.00;;;;;;5013623;28;20562;-52
2021/08/25 10:59:15;;;;;;;3.58;1.20;;;19.40;49.00;;;;;;5013500;28;20225;-56
2021/08/25 11:01:45;;;;;;;1.42;1.02;;;19.40;49.10;;;;;;5013261;28;20263;-52
2021/08/25 11:04:17;;;;;;;3.17;0.98;;;19.40;49.10;;;;;;5013720;28;20707;-57
2021/08/25 11:06:50;;;;;;;2.13;1.17;;;19.40;49.10;;;;;;5013540;28;20228;-56
2021/08/25 11:09:29;;;;;;;3.28;1.08;;;19.40;49.10;;;;;;5013818;28;20197;-54
2021/08/25 11:12:07;;;;;;;2.85;1.20;;;19.40;49.10;;;;;;5014059;28;20664;-58
2021/08/25 11:14:45;;;;;;;1.77;1.20;;;19.30;49.10;;;;;;5012576;28;20649;-54
2021/08/25 11:17:17;;;;;;;3.10;1.17;;;19.30;49.20;;;;;;5013153;28;20220;-56
2021/08/25 11:19:48;;;;;;;1.90;0.93;;;19.30;49.20;;;;;;5012379;28;20278;-53
2021/08/25 11:22:20;;;;;;;1.50;0.93;;;19.30;49.20;;;;;;5012531;28;20282;-50
2021/08/25 11:24:53;;;;;;;1.85;1.10;;;19.20;49.20;;;;;;5012526;28;20710;-53
2021/08/25 11:27:30;;;;;;;1.85;1.05;;;19.30;49.20;;;;;;5013240;28;20275;-64
2021/08/25 11:30:17;;;;;;;3.08;1.40;;;19.20;49.20;;;;;;5013494;28;20236;-56
2021/08/25 11:32:49;;;;;;;1.88;1.25;;;19.20;49.20;;;;;;5012820;28;20232;-61
2021/08/25 11:35:25;;;;;;;2.25;1.02;;;19.20;49.20;;;;;;5012859;28;20259;-56
2021/08/25 11:37:56;;;;;;;2.60;1.30;;;19.20;49.20;;;;;;5013539;28;20239;-54
2021/08/25 11:40:30;;;;;;;2.38;1.40;;;19.10;49.90;;;;;;5013355;28;20280;-49
2021/08/25 11:43:05;;;;;;;3.47;1.45;;;19.10;49.30;;;;;;5012812;28;20696;-57
2021/08/25 11:45:36;;;;;;;2.17;1.17;;;19.10;49.30;;;;;;5013351;28;20641;-57
2021/08/25 11:48:07;;;;;;;2.10;1.17;;;19.10;49.30;;;;;;5013632;28;20251;-57
2021/08/25 11:50:38;;;;;;;3.45;1.45;;;19.10;49.30;;;;;;5013277;28;20204;-51
2021/08/25 11:53:15;;;;;;;1.95;1.30;;;19.10;49.40;;;;;;5006604;23;20249;-48
2021/08/25 11:55:47;;;;;;;2.40;1.52;;;19.10;49.40;;;;;;4994289;28;20296;-53
2021/08/25 11:58:24;;;;;;;2.65;1.35;;;19.00;49.40;;;;;;4993392;28;20271;-51
2021/08/25 12:00:55;;;;;;;2.42;1.40;;;19.00;49.40;;;;;;4993334;28;20448;-53
2021/08/25 12:03:39;;;;;;;2.47;1.40;;;19.00;49.40;;;;;;4993195;28;20320;-48
2021/08/25 12:06:10;;;;;;;2.45;1.30;;;19.00;49.40;;;;;;4993170;28;20198;-57
2021/08/25 12:08:43;;;;;;;3.55;1.10;;;19.00;49.30;;;;;;4993197;28;20309;-54
2021/08/25 12:11:15;;;;;;;4.03;1.48;;;18.90;49.30;;;;;;4991202;28;20726;-56
2021/08/25 12:13:46;;;;;;;4.68;1.60;;;18.90;49.30;;;;;;4973649;28;20316;-52
2021/08/25 12:16:23;;;;;;;4.03;1.60;;;18.90;49.30;;;;;;4973883;28;20233;-53
2021/08/25 12:18:54;;;;;;;3.88;1.50;;;18.90;49.30;;;;;;4973762;28;20253;-52
2021/08/25 12:21:28;;;;;;;4.35;1.70;;;18.80;49.30;;;;;;4973769;28;20234;-49
2021/08/25 12:23:59;;;;;;;3.70;1.67;;;18.90;49.40;;;;;;4973924;28;20706;-53
2021/08/25 12:26:32;;;;;;;2.78;1.35;;;18.80;49.40;;;;;;4974019;28;20284;-49
2021/08/25 12:29:02;;;;;;;3.25;1.40;;;18.80;49.40;;;;;;5000868;28;20741;-50
2021/08/25 12:31:33;;;;;;;3.50;1.70;;;18.80;49.40;;;;;;5012380;28;20232;-50
2021/08/25 12:34:10;;;;;;;2.22;1.40;;;18.80;49.40;;;;;;5012413;28;20649;-54
2021/08/25 12:36:41;;;;;;;3.17;1.50;;;18.80;49.40;;;;;;5012333;28;20271;-50
2021/08/25 12:39:16;;;;;;;2.38;1.33;;;18.70;49.40;;;;;;5012312;28;20217;-53
2021/08/25 12:41:48;;;;;;;2.80;1.50;;;18.70;49.40;;;;;;5012441;28;20200;-51
2021/08/25 12:44:19;;;;;;;4.20;1.58;;;18.70;49.40;;;;;;5011224;28;20204;-47
2021/08/25 12:46:53;;;;;;;2.78;1.42;;;18.70;49.40;;;;;;5012298;28;20260;-48
2021/08/25 12:49:23;;;;;;;2.28;1.30;;;18.70;49.40;;;;;;5012208;28;20206;-49
2021/08/25 12:51:54;;;;;;;2.83;1.45;;;18.70;49.40;;;;;;5017033;23;20260;-57
2021/08/25 12:54:24;;;;;;;2.75;1.52;;;18.70;49.40;;;;;;4992939;28;20241;-59
2021/08/25 12:56:57;;;;;;;2.90;1.25;;;18.60;49.40;;;;;;4993043;28;20240;-58
2021/08/25 12:59:27;;;;;;;2.85;1.52;;;18.60;49.40;;;;;;4992559;28;20792;-58
2021/08/25 13:01:58;;;;;;;2.85;1.65;;;18.60;49.40;;;;;;4992285;28;20237;-57
2021/08/25 13:04:28;;;;;;;3.75;1.60;;;18.60;49.40;;;;;;4991975;28;20255;-50
2021/08/25 13:06:58;;;;;;;3.75;1.67;;;18.60;49.50;;;;;;4991913;28;20244;-56
2021/08/25 13:09:29;;;;;;;2.90;1.30;;;18.50;49.40;;;;;;4991943;28;20285;-56
2021/08/25 13:12:01;;;;;;;3.85;1.77;;;18.50;49.50;;;;;;4991567;28;20243;-55
2021/08/25 13:14:31;;;;;;;3.50;1.45;;;18.50;49.40;;;;;;4991617;28;20303;-57